Time;durP1;ratioP1;P1;durP2;ratioP2;P2;SDS_P1;SDS_P2;PMS_P1;PMS_P2;Temp;Humidity;BMP_temperature;BMP_pressure;BME280_temperature;BME280_humidity;BME280_pressure;Samples;Min_cycle;Max_cycle;Signal;HPM_P1;HPM_P2
2024/01/31 00:00:33;;;;;;;36.50;16.70;;;;;;;-9.31;74.20;101321.00;6190615;23;20029;-49
2024/01/31 00:03:06;;;;;;;32.75;16.17;;;;;;;-9.26;73.89;101329.88;6204755;23;20020;-49
2024/01/31 00:05:37;;;;;;;34.70;17.45;;;;;;;-9.22;74.16;101326.78;6189960;23;20047;-49
2024/01/31 00:08:08;;;;;;;35.72;16.55;;;;;;;-9.13;74.06;101321.59;6205366;23;20016;-49
2024/01/31 00:10:39;;;;;;;41.53;17.27;;;;;;;-9.03;74.11;101326.63;6189689;23;20020;-49
2024/01/31 00:13:09;;;;;;;35.15;17.30;;;;;;;-8.85;74.42;101318.69;6205180;23;20046;-49
2024/01/31 00:15:40;;;;;;;41.78;17.98;;;;;;;-8.62;74.42;101312.88;6189684;23;20039;-51
2024/01/31 00:18:12;;;;;;;32.28;17.05;;;;;;;-8.39;73.86;101318.00;6205103;23;20101;-49
2024/01/31 00:20:42;;;;;;;40.17;17.65;;;;;;;-8.34;72.73;101316.69;6189853;23;20453;-49
2024/01/31 00:23:13;;;;;;;39.05;17.52;;;;;;;-8.42;71.82;101316.94;6204968;23;20024;-51
2024/01/31 00:25:43;;;;;;;41.38;18.70;;;;;;;-8.48;71.54;101320.75;6205827;23;20059;-49
2024/01/31 00:28:14;;;;;;;35.58;16.48;;;;;;;-8.41;72.02;101314.53;6198770;23;20519;-50
2024/01/31 00:30:44;;;;;;;38.25;18.60;;;;;;;-8.17;71.86;101304.41;6204931;23;20043;-49
2024/01/31 00:33:16;;;;;;;37.33;17.60;;;;;;;-7.91;71.80;101302.19;6190342;23;20368;-52
2024/01/31 00:35:47;;;;;;;33.03;17.00;;;;;;;-7.66;71.04;101306.50;6204944;23;20103;-50
2024/01/31 00:38:17;;;;;;;37.17;17.02;;;;;;;-7.55;70.23;101304.78;6190090;23;20106;-52
2024/01/31 00:40:48;;;;;;;36.90;16.55;;;;;;;-7.67;69.52;101304.75;6205779;23;20016;-49
2024/01/31 00:43:18;;;;;;;41.08;18.80;;;;;;;-7.82;69.27;101304.50;6190112;23;20516;-50
2024/01/31 00:45:49;;;;;;;44.28;18.65;;;;;;;-7.88;69.21;101299.88;6205646;23;20024;-51
2024/01/31 00:48:21;;;;;;;44.10;18.98;;;;;;;-7.88;68.74;101294.78;6189657;23;20028;-50
2024/01/31 00:50:52;;;;;;;40.20;17.67;;;;;;;-7.95;68.31;101297.66;6205701;23;20038;-52
2024/01/31 00:53:22;;;;;;;33.15;16.52;;;;;;;-8.00;68.40;101298.97;6190686;23;20555;-49
2024/01/31 00:55:52;;;;;;;37.28;16.80;;;;;;;-8.11;68.27;101299.78;6206374;23;20020;-50
2024/01/31 00:58:23;;;;;;;34.70;16.92;;;;;;;-8.21;68.56;101307.47;6191895;23;20023;-49
2024/01/31 01:00:53;;;;;;;38.55;17.13;;;;;;;-8.25;68.51;101306.38;6207219;23;20024;-51
2024/01/31 01:03:25;;;;;;;37.75;18.13;;;;;;;-8.29;68.85;101307.78;6191747;23;20031;-50
2024/01/31 01:05:56;;;;;;;36.40;17.33;;;;;;;-8.27;68.82;101301.19;6206539;23;20491;-49
2024/01/31 01:08:26;;;;;;;39.05;19.10;;;;;;;-8.17;69.32;101304.41;6191924;23;20023;-49
2024/01/31 01:10:57;;;;;;;36.33;18.05;;;;;;;-8.03;69.51;101313.97;6207510;23;20048;-51
2024/01/31 01:13:27;;;;;;;39.05;18.85;;;;;;;-7.98;69.13;101302.50;6191898;23;20028;-51
2024/01/31 01:15:57;;;;;;;41.47;17.92;;;;;;;-8.05;68.92;101300.28;6206756;23;20118;-50
2024/01/31 01:18:29;;;;;;;39.47;18.50;;;;;;;-8.18;68.91;101303.53;6191206;23;20472;-49
2024/01/31 01:21:00;;;;;;;41.72;18.65;;;;;;;-8.25;68.59;101292.03;6206542;23;20040;-52
2024/01/31 01:23:30;;;;;;;40.72;19.35;;;;;;;-8.06;68.55;101288.38;6192214;23;20103;-52
2024/01/31 01:26:01;;;;;;;38.10;18.17;;;;;;;-7.99;68.20;101270.28;6207190;23;20028;-50
2024/01/31 01:28:31;;;;;;;38.55;17.92;;;;;;;-8.02;67.31;101278.53;6192332;23;20035;-49
2024/01/31 01:31:02;;;;;;;39.78;18.20;;;;;;;-8.17;67.50;101276.53;6206700;23;20028;-51
2024/01/31 01:33:34;;;;;;;40.25;18.30;;;;;;;-8.09;67.36;101278.84;6191722;23;20035;-49
2024/01/31 01:36:05;;;;;;;41.50;17.92;;;;;;;-7.93;67.23;101275.81;6206463;23;20086;-51
2024/01/31 01:38:36;;;;;;;42.35;17.73;;;;;;;-7.85;67.01;101274.72;6191930;23;20048;-50
2024/01/31 01:41:07;;;;;;;39.45;18.42;;;;;;;-7.70;67.37;101274.09;6206944;23;20020;-50
2024/01/31 01:43:37;;;;;;;40.03;17.65;;;;;;;-7.57;66.72;101256.41;6190763;23;20345;-50
2024/01/31 01:46:12;;;;;;;45.40;19.08;;;;;;;-7.62;66.49;101248.47;6206420;23;20094;-49
2024/01/31 01:48:45;;;;;;;37.97;18.13;;;;;;;-7.57;66.30;101266.56;6191155;23;20384;-52
2024/01/31 01:51:18;;;;;;;36.45;16.52;;;;;;;-7.51;66.00;101256.88;6191476;23;20031;-53
2024/01/31 01:53:51;;;;;;;36.58;16.05;;;;;;;-7.43;66.16;101244.72;6206849;23;20051;-50
2024/01/31 01:56:22;;;;;;;36.78;17.83;;;;;;;-7.43;66.06;101244.72;6191896;23;20094;-49
2024/01/31 01:58:54;;;;;;;37.80;16.73;;;;;;;-7.43;66.39;101230.38;6207606;23;20082;-51
2024/01/31 02:01:27;;;;;;;34.13;16.55;;;;;;;-7.46;66.38;101224.19;6191473;23;20046;-50
2024/01/31 02:04:01;;;;;;;41.28;17.45;;;;;;;-7.54;66.32;101218.56;6205788;23;20027;-50
2024/01/31 02:06:33;;;;;;;41.90;18.08;;;;;;;-7.54;66.19;101210.94;6191879;23;20097;-50
2024/01/31 02:09:04;;;;;;;41.58;17.85;;;;;;;-7.50;66.16;101206.97;6206071;23;20024;-49
2024/01/31 02:11:36;;;;;;;45.42;19.25;;;;;;;-7.50;66.04;101202.78;6191783;23;20113;-50
2024/01/31 02:14:06;;;;;;;45.20;18.55;;;;;;;-7.59;66.48;101186.88;6206768;23;20630;-50
2024/01/31 02:16:37;;;;;;;42.67;18.63;;;;;;;-7.67;67.01;101188.88;6191272;23;20055;-51
2024/01/31 02:19:09;;;;;;;51.28;20.00;;;;;;;-7.86;67.91;101185.84;6205996;23;20019;-50
2024/01/31 02:21:42;;;;;;;47.10;20.58;;;;;;;-8.09;68.32;101184.13;6190524;23;20820;-50
2024/01/31 02:24:14;;;;;;;45.08;19.45;;;;;;;-8.13;69.27;101179.63;6206017;23;20583;-50
2024/01/31 02:26:44;;;;;;;59.83;22.00;;;;;;;-8.22;69.62;101169.69;6190839;23;20024;-50
2024/01/31 02:29:15;;;;;;;41.58;17.90;;;;;;;-8.35;69.53;101172.09;6192623;23;20027;-52
2024/01/31 02:31:45;;;;;;;42.88;17.65;;;;;;;-8.49;69.83;101164.38;6206205;23;20020;-51
2024/01/31 02:34:15;;;;;;;42.00;16.88;;;;;;;-8.51;70.27;101159.97;6190967;23;20449;-54
2024/01/31 02:36:46;;;;;;;40.53;16.67;;;;;;;-8.33;70.48;101156.25;6205971;23;20020;-53
2024/01/31 02:39:18;;;;;;;42.47;17.15;;;;;;;-8.15;70.10;101140.59;6190669;23;20034;-53
2024/01/31 02:41:48;;;;;;;41.58;16.83;;;;;;;-7.88;70.44;101150.19;6205796;23;20095;-50
2024/01/31 02:44:19;;;;;;;35.85;16.80;;;;;;;-7.78;70.29;101138.16;6190799;23;20024;-50
2024/01/31 02:46:50;;;;;;;38.33;15.63;;;;;;;-7.69;69.61;101143.88;6206548;23;20024;-50
2024/01/31 02:49:20;;;;;;;35.40;16.50;;;;;;;-7.62;69.40;101135.91;6191053;23;20020;-49
2024/01/31 02:51:52;;;;;;;39.22;15.02;;;;;;;-7.61;69.18;101127.56;6205704;23;20024;-50
2024/01/31 02:54:24;;;;;;;29.65;13.32;;;;;;;-7.79;67.33;101126.25;6190765;23;20111;-49
2024/01/31 02:57:00;;;;;;;33.88;14.00;;;;;;;-7.97;67.92;101121.63;6205914;23;20091;-49
2024/01/31 02:59:31;;;;;;;28.45;12.82;;;;;;;-8.09;67.54;101125.81;6184725;23;20024;-51
2024/01/31 03:02:01;;;;;;;28.70;13.07;;;;;;;-7.96;68.28;101118.34;6203529;23;20028;-54
2024/01/31 03:04:32;;;;;;;30.48;14.00;;;;;;;-7.74;67.93;101107.16;6188229;23;20089;-53
2024/01/31 03:07:03;;;;;;;29.30;14.38;;;;;;;-7.70;67.46;101111.66;6203023;23;20445;-54
2024/01/31 03:09:35;;;;;;;39.28;13.80;;;;;;;-7.89;66.68;101105.28;6188065;23;20029;-54
2024/01/31 03:12:06;;;;;;;34.72;13.95;;;;;;;-7.96;67.40;101100.56;6202809;23;20054;-52
2024/01/31 03:14:37;;;;;;;34.45;15.43;;;;;;;-7.83;67.89;101103.19;6188379;23;20040;-53
2024/01/31 03:17:07;;;;;;;35.03;15.02;;;;;;;-7.62;67.58;101102.94;6203324;23;20074;-54
2024/01/31 03:19:38;;;;;;;30.20;14.52;;;;;;;-7.45;68.02;101094.81;6186805;23;20024;-55
2024/01/31 03:22:08;;;;;;;34.38;15.48;;;;;;;-7.30;68.86;101094.13;6202620;23;20020;-54
2024/01/31 03:24:41;;;;;;;35.53;15.32;;;;;;;-7.29;68.04;101088.25;6188317;23;20019;-52
2024/01/31 03:27:11;;;;;;;44.75;16.52;;;;;;;-7.34;68.14;101081.97;6202735;23;20114;-54
2024/01/31 03:29:44;;;;;;;31.50;13.90;;;;;;;-7.43;67.23;101072.09;6187328;23;20020;-53
2024/01/31 03:32:14;;;;;;;28.55;14.20;;;;;;;-7.54;67.71;101068.81;6192692;23;20016;-55
2024/01/31 03:34:45;;;;;;;28.80;14.00;;;;;;;-7.52;67.47;101062.19;6203956;23;20058;-54
2024/01/31 03:37:15;;;;;;;31.00;13.35;;;;;;;-7.46;67.78;101061.72;6187809;23;20077;-53
2024/01/31 03:39:47;;;;;;;33.88;14.90;;;;;;;-7.41;68.01;101058.72;6203690;23;20138;-55
2024/01/31 03:42:18;;;;;;;33.13;13.90;;;;;;;-7.44;67.90;101048.38;6188684;23;20059;-54
2024/01/31 03:44:48;;;;;;;27.58;13.88;;;;;;;-7.39;68.19;101043.59;6202819;23;20020;-54
2024/01/31 03:47:19;;;;;;;29.88;13.20;;;;;;;-7.44;67.11;101040.75;6187458;23;20024;-54
2024/01/31 03:49:51;;;;;;;28.15;13.40;;;;;;;-7.47;66.67;101030.38;6203508;23;20020;-52
2024/01/31 03:52:21;;;;;;;31.45;13.57;;;;;;;-7.52;67.01;101030.84;6188252;23;20044;-56
2024/01/31 03:54:53;;;;;;;29.50;13.70;;;;;;;-7.38;66.98;101019.97;6203222;23;20020;-53
2024/01/31 03:57:24;;;;;;;32.60;14.13;;;;;;;-7.22;66.73;101011.72;6188118;23;20015;-53
2024/01/31 03:59:54;;;;;;;30.10;13.70;;;;;;;-7.16;66.89;101012.13;6203265;23;20054;-53
2024/01/31 04:02:25;;;;;;;32.05;13.88;;;;;;;-7.57;66.79;100964.53;6187328;23;20406;-53
2024/01/31 04:04:55;;;;;;;31.52;13.80;;;;;;;-7.34;67.32;101005.81;6203567;23;20030;-53
2024/01/31 04:07:26;;;;;;;27.02;13.18;;;;;;;-7.24;67.65;101000.56;6188058;23;20078;-53
2024/01/31 04:09:58;;;;;;;29.58;13.30;;;;;;;-6.99;68.07;101001.44;6203151;23;20100;-52
2024/01/31 04:12:28;;;;;;;25.60;11.90;;;;;;;-6.97;68.18;100988.81;6187915;23;20016;-54
2024/01/31 04:14:59;;;;;;;26.92;12.68;;;;;;;-6.93;67.39;100984.81;6200428;23;20089;-55
2024/01/31 04:17:29;;;;;;;27.20;12.65;;;;;;;-6.95;66.22;100983.06;6187530;23;20016;-51
2024/01/31 04:20:00;;;;;;;28.50;13.02;;;;;;;-7.16;66.11;100974.91;6202854;23;20016;-54
2024/01/31 04:22:30;;;;;;;28.90;13.35;;;;;;;-7.28;66.62;100966.50;6186659;23;20406;-55
2024/01/31 04:25:03;;;;;;;25.52;12.30;;;;;;;-7.32;67.32;100963.63;6201939;23;20095;-54
2024/01/31 04:27:33;;;;;;;25.90;12.68;;;;;;;-7.32;67.20;100964.50;6187850;23;20076;-55
2024/01/31 04:30:04;;;;;;;36.58;13.98;;;;;;;-7.16;67.85;100961.34;6202244;23;20031;-55
2024/01/31 04:32:34;;;;;;;30.05;13.00;;;;;;;-7.02;67.96;100960.56;6189795;23;20017;-54
2024/01/31 04:35:05;;;;;;;23.98;12.38;;;;;;;-7.03;68.03;100943.56;6205563;23;20023;-53
2024/01/31 04:37:35;;;;;;;30.55;14.10;;;;;;;-6.77;68.38;100944.34;6190954;23;20020;-52
2024/01/31 04:40:09;;;;;;;28.40;13.55;;;;;;;-7.03;68.13;100900.38;6205170;23;20242;-55
2024/01/31 04:42:40;;;;;;;30.83;14.63;;;;;;;-6.93;70.00;100923.84;6189798;23;20328;-54
2024/01/31 04:45:11;;;;;;;33.22;15.18;;;;;;;-6.80;71.06;100931.47;6205116;23;20087;-53
2024/01/31 04:47:43;;;;;;;30.25;15.13;;;;;;;-6.85;70.47;100932.84;6188826;23;20020;-52
2024/01/31 04:50:13;;;;;;;41.30;15.57;;;;;;;-6.82;71.63;100917.78;6201369;23;20688;-54
2024/01/31 04:52:44;;;;;;;28.85;14.30;;;;;;;-6.87;71.28;100919.16;6204481;23;20020;-54
2024/01/31 04:55:18;;;;;;;36.45;16.48;;;;;;;-7.07;72.00;100916.19;6191462;23;20024;-53
2024/01/31 04:57:48;;;;;;;28.88;13.95;;;;;;;-7.16;71.27;100925.78;6204801;23;20020;-53
2024/01/31 05:00:23;;;;;;;31.88;14.80;;;;;;;-7.11;72.63;100919.34;6189933;23;20448;-54
2024/01/31 05:02:54;;;;;;;31.95;14.05;;;;;;;-7.12;71.98;100921.78;6205148;23;20603;-52
2024/01/31 05:05:24;;;;;;;30.13;14.35;;;;;;;-7.33;70.83;100911.13;6189650;23;20091;-55
2024/01/31 05:07:54;;;;;;;35.78;14.52;;;;;;;-7.50;71.35;100917.59;6205506;23;20399;-53
2024/01/31 05:10:26;;;;;;;28.92;13.98;;;;;;;-7.49;72.11;100920.22;6189759;23;20026;-51
2024/01/31 05:12:57;;;;;;;31.63;14.65;;;;;;;-7.41;72.10;100919.09;6204365;23;20086;-54
2024/01/31 05:15:28;;;;;;;38.13;14.55;;;;;;;-7.45;72.05;100916.25;6189920;23;20078;-55
2024/01/31 05:17:58;;;;;;;29.83;14.23;;;;;;;-7.45;72.59;100914.59;6204394;23;20030;-53
2024/01/31 05:20:29;;;;;;;31.52;13.57;;;;;;;-7.52;72.98;100920.03;6189239;23;20043;-54
2024/01/31 05:22:59;;;;;;;29.73;14.40;;;;;;;-7.64;73.24;100914.16;6204879;23;20095;-54
2024/01/31 05:25:31;;;;;;;28.10;12.80;;;;;;;-7.76;73.54;100910.78;6189578;23;20031;-55
2024/01/31 05:28:02;;;;;;;31.63;13.82;;;;;;;-7.80;73.51;100912.25;6204177;23;20452;-53
2024/01/31 05:30:32;;;;;;;25.30;12.70;;;;;;;-7.86;73.80;100917.78;6189437;23;20410;-54
2024/01/31 05:33:02;;;;;;;30.23;13.43;;;;;;;-7.91;73.86;100918.22;6204462;23;20086;-53
2024/01/31 05:35:35;;;;;;;24.35;12.55;;;;;;;-7.90;73.47;100918.34;6189610;23;20021;-54
2024/01/31 05:38:06;;;;;;;31.40;11.32;;;;;;;-7.96;73.63;100910.34;6205179;23;20082;-54
2024/01/31 05:40:38;;;;;;;27.13;11.38;;;;;;;-8.04;73.74;100916.53;6189818;23;20047;-54
2024/01/31 05:43:09;;;;;;;28.25;12.45;;;;;;;-8.07;73.90;100926.47;6203415;23;20040;-54
2024/01/31 05:45:39;;;;;;;28.02;11.70;;;;;;;-8.08;74.10;100919.66;6188761;23;20119;-53
2024/01/31 05:48:10;;;;;;;29.08;12.02;;;;;;;-8.17;74.14;100919.00;6203997;23;20461;-55
2024/01/31 05:50:40;;;;;;;25.30;12.10;;;;;;;-8.26;74.65;100915.06;6189193;23;20105;-52
2024/01/31 05:53:11;;;;;;;30.13;12.75;;;;;;;-8.35;74.45;100919.50;6204364;23;20389;-54
2024/01/31 05:55:43;;;;;;;26.00;11.93;;;;;;;-8.33;74.86;100912.88;6189058;23;20034;-53
2024/01/31 05:58:13;;;;;;;30.45;13.43;;;;;;;-8.35;75.33;100895.81;6199771;23;20028;-54
2024/01/31 06:00:44;;;;;;;22.67;10.23;;;;;;;-8.28;75.57;100909.00;6203668;23;20047;-52
2024/01/31 06:03:15;;;;;;;26.75;11.98;;;;;;;-8.49;75.93;100910.06;6190326;23;20365;-52
2024/01/31 06:05:46;;;;;;;26.25;11.45;;;;;;;-8.60;76.75;100911.00;6203519;23;20463;-53
2024/01/31 06:08:18;;;;;;;23.73;11.50;;;;;;;-8.69;77.12;100907.00;6189077;23;20606;-54
2024/01/31 06:10:53;;;;;;;29.77;12.25;;;;;;;-8.74;78.16;100908.34;6204520;23;20082;-54
2024/01/31 06:13:23;;;;;;;30.45;12.70;;;;;;;-8.77;78.82;100907.25;6189110;23;20016;-54
2024/01/31 06:15:54;;;;;;;25.02;12.63;;;;;;;-8.69;79.13;100908.69;6204053;23;20027;-52
2024/01/31 06:18:24;;;;;;;26.42;13.23;;;;;;;-8.64;79.33;100909.00;6189042;23;20373;-53
2024/01/31 06:20:55;;;;;;;28.58;13.13;;;;;;;-8.74;79.81;100903.28;6203523;23;20028;-51
2024/01/31 06:23:26;;;;;;;29.65;13.90;;;;;;;-8.83;80.42;100897.59;6188449;23;20723;-52
2024/01/31 06:26:00;;;;;;;28.90;13.85;;;;;;;-8.91;80.87;100888.53;6203985;23;20118;-52
2024/01/31 06:28:31;;;;;;;29.15;12.35;;;;;;;-9.03;81.42;100890.22;6188538;23;20052;-53
2024/01/31 06:31:13;;;;;;;29.73;12.20;;;;;;;-9.09;82.24;100887.22;6203221;23;20095;-53
2024/01/31 06:33:43;;;;;;;25.90;12.32;;;;;;;-9.14;82.94;100885.25;6188131;23;20023;-54
2024/01/31 06:36:14;;;;;;;28.25;13.13;;;;;;;-10.28;82.75;100703.28;6196322;23;20024;-53
2024/01/31 06:38:44;;;;;;;24.27;10.90;;;;;;;-9.17;83.47;100884.16;6203426;23;20024;-54
2024/01/31 06:41:17;;;;;;;22.20;11.30;;;;;;;-9.21;83.26;100885.59;6189678;23;20887;-53
2024/01/31 06:43:47;;;;;;;24.23;11.27;;;;;;;-9.26;83.67;100874.25;6203105;23;20054;-52
2024/01/31 06:46:18;;;;;;;24.38;11.10;;;;;;;-9.24;83.78;100872.69;6188090;23;20384;-53
2024/01/31 06:48:49;;;;;;;24.50;11.65;;;;;;;-9.26;83.67;100868.28;6203449;23;20482;-54
2024/01/31 06:51:19;;;;;;;27.67;11.48;;;;;;;-9.32;83.55;100863.69;6188568;23;20016;-54
2024/01/31 06:53:50;;;;;;;23.20;10.55;;;;;;;-9.38;83.83;100873.38;6203627;23;20070;-54
2024/01/31 06:56:22;;;;;;;24.88;12.02;;;;;;;-9.35;84.20;100863.47;6188565;23;20563;-53
2024/01/31 06:58:54;;;;;;;26.33;10.93;;;;;;;-9.38;84.23;100868.31;6204244;23;20120;-53
2024/01/31 07:01:25;;;;;;;25.58;11.23;;;;;;;-9.42;83.98;100863.78;6188390;23;20058;-51
2024/01/31 07:03:55;;;;;;;23.13;10.75;;;;;;;-9.50;83.88;100867.41;6203079;23;20086;-51
2024/01/31 07:06:26;;;;;;;30.17;11.35;;;;;;;-9.47;84.82;100854.97;6188343;23;20031;-52
2024/01/31 07:08:56;;;;;;;26.05;12.80;;;;;;;-9.38;85.00;100848.06;6202790;23;20042;-52
2024/01/31 07:11:28;;;;;;;23.58;10.68;;;;;;;-9.38;84.73;100848.06;6187820;23;20016;-53
2024/01/31 07:13:58;;;;;;;21.15;10.25;;;;;;;-9.50;84.61;100837.06;6203841;23;20054;-54
2024/01/31 07:16:29;;;;;;;21.52;10.40;;;;;;;-9.57;84.48;100846.72;6188258;23;20028;-53
2024/01/31 07:18:59;;;;;;;21.88;10.65;;;;;;;-9.72;84.40;100834.59;6202690;23;20020;-54
2024/01/31 07:21:30;;;;;;;23.08;10.57;;;;;;;-9.76;84.83;100830.94;6187751;23;20095;-54
2024/01/31 07:24:00;;;;;;;23.52;10.30;;;;;;;-9.90;84.64;100818.97;6202974;23;20031;-53
2024/01/31 07:26:45;;;;;;;19.20;8.95;;;;;;;-10.07;84.92;100821.09;6187136;23;20020;-52
2024/01/31 07:29:16;;;;;;;24.92;10.85;;;;;;;-10.25;85.33;100819.75;6187417;23;20475;-52
2024/01/31 07:31:47;;;;;;;27.58;11.80;;;;;;;-10.30;86.03;100816.03;6203470;23;20055;-55
2024/01/31 07:34:18;;;;;;;24.95;11.13;;;;;;;-10.29;86.67;100807.66;6187626;23;20345;-52
2024/01/31 07:36:49;;;;;;;18.95;10.35;;;;;;;-10.22;86.83;100804.81;6202955;23;20340;-52
2024/01/31 07:39:19;;;;;;;30.73;11.45;;;;;;;-10.17;86.94;100802.63;6187043;23;20024;-54
2024/01/31 07:41:52;;;;;;;23.83;10.40;;;;;;;-10.27;86.59;100806.09;6203227;23;20111;-53
2024/01/31 07:44:22;;;;;;;19.58;9.88;;;;;;;-10.33;86.70;100800.59;6187974;23;20032;-53
2024/01/31 07:46:53;;;;;;;22.70;11.95;;;;;;;-10.43;86.45;100806.63;6203511;23;20070;-52
2024/01/31 07:49:23;;;;;;;24.55;11.98;;;;;;;-10.51;86.47;100803.50;6188251;23;20040;-52
2024/01/31 07:51:56;;;;;;;23.10;11.38;;;;;;;-10.63;86.37;100805.13;6203102;23;20020;-51
2024/01/31 07:54:27;;;;;;;19.85;10.43;;;;;;;-10.73;86.56;100805.16;6187791;23;20131;-53
2024/01/31 07:56:59;;;;;;;22.95;10.30;;;;;;;-10.86;87.01;100796.66;6202361;23;20024;-54
2024/01/31 07:59:29;;;;;;;22.83;10.77;;;;;;;-10.91;87.43;100797.91;6187909;23;20028;-53
2024/01/31 08:02:00;;;;;;;28.60;12.10;;;;;;;-10.88;87.76;100793.13;6203078;23;20024;-53
2024/01/31 08:04:30;;;;;;;24.88;12.05;;;;;;;-10.93;87.66;100794.44;6187913;23;20507;-53
2024/01/31 08:07:01;;;;;;;27.20;12.75;;;;;;;-10.96;87.26;100798.34;6204332;23;20100;-53
2024/01/31 08:09:31;;;;;;;25.60;11.95;;;;;;;-11.07;87.21;100795.88;6188582;23;20558;-52
2024/01/31 08:12:03;;;;;;;26.20;12.52;;;;;;;-11.24;86.82;100785.22;6204194;23;20119;-53
2024/01/31 08:14:33;;;;;;;24.92;12.25;;;;;;;-11.47;86.76;100784.28;6190085;23;20025;-52
2024/01/31 08:17:04;;;;;;;24.17;11.52;;;;;;;-11.65;87.48;100786.22;6205270;23;20275;-53
2024/01/31 08:19:35;;;;;;;24.48;11.02;;;;;;;-11.82;87.53;100781.47;6190011;23;20792;-52
2024/01/31 08:22:06;;;;;;;21.88;10.57;;;;;;;-11.97;87.48;100786.19;6204913;23;20024;-51
2024/01/31 08:24:36;;;;;;;28.20;10.90;;;;;;;-12.03;88.18;100785.69;6189727;23;20556;-52
2024/01/31 08:27:08;;;;;;;22.85;11.07;;;;;;;-12.03;88.45;100778.13;6204614;23;20095;-52
2024/01/31 08:29:39;;;;;;;22.90;10.90;;;;;;;-12.08;88.80;100776.84;6189397;23;20321;-54
2024/01/31 08:32:09;;;;;;;20.52;10.10;;;;;;;-12.19;89.19;100774.34;6205162;23;20619;-53
2024/01/31 08:34:39;;;;;;;24.52;11.52;;;;;;;-12.21;90.01;100770.81;6189171;23;20051;-51
2024/01/31 08:37:10;;;;;;;24.23;11.10;;;;;;;-12.14;90.93;100758.75;6204284;23;20024;-50
2024/01/31 08:39:40;;;;;;;18.73;10.25;;;;;;;-12.11;90.93;100761.50;6189071;23;20027;-52
2024/01/31 08:42:14;;;;;;;25.60;11.02;;;;;;;-12.95;91.92;100599.41;6204573;23;20040;-51
2024/01/31 08:44:44;;;;;;;21.55;10.48;;;;;;;-12.00;91.72;100755.72;6189774;23;20411;-51
2024/01/31 08:47:15;;;;;;;24.60;10.40;;;;;;;-12.00;91.96;100748.16;6191929;23;20050;-53
2024/01/31 08:49:49;;;;;;;25.42;10.73;;;;;;;-12.03;91.96;100730.25;6205262;23;20020;-52
2024/01/31 08:52:19;;;;;;;28.70;11.48;;;;;;;-11.92;92.37;100736.16;6189344;23;20043;-51
2024/01/31 08:54:50;;;;;;;22.20;11.20;;;;;;;-11.82;92.72;100731.06;6204594;23;20103;-52
2024/01/31 08:57:22;;;;;;;28.02;12.85;;;;;;;-11.75;92.64;100726.63;6189479;23;20016;-53
2024/01/31 08:59:52;;;;;;;29.08;11.82;;;;;;;-11.72;92.45;100719.31;6204750;23;20050;-53
2024/01/31 09:02:23;;;;;;;22.77;11.88;;;;;;;-11.67;92.20;100711.25;6190001;23;20028;-51
2024/01/31 09:04:53;;;;;;;28.02;11.85;;;;;;;-11.66;91.96;100713.00;6205587;23;20024;-52
2024/01/31 09:07:24;;;;;;;23.50;10.95;;;;;;;-11.66;91.93;100713.00;6189746;23;20341;-55
2024/01/31 09:09:54;;;;;;;24.15;12.20;;;;;;;-11.79;91.78;100676.72;6204584;23;20019;-50
2024/01/31 09:12:26;;;;;;;22.63;10.10;;;;;;;-11.69;91.79;100692.59;6189655;23;20171;-53
2024/01/31 09:14:57;;;;;;;24.90;10.98;;;;;;;-11.73;91.33;100679.75;6204094;23;20095;-52
2024/01/31 09:17:28;;;;;;;25.10;10.90;;;;;;;-11.77;91.66;100690.34;6188407;23;20074;-51
2024/01/31 09:19:58;;;;;;;28.02;12.02;;;;;;;-11.76;91.70;100689.56;6204211;23;20098;-51
2024/01/31 09:22:29;;;;;;;24.42;12.30;;;;;;;-11.74;91.75;100680.50;6188537;23;20020;-51
2024/01/31 09:24:59;;;;;;;29.23;13.05;;;;;;;-11.72;91.77;100678.97;6204165;23;20091;-53
2024/01/31 09:27:31;;;;;;;26.73;11.85;;;;;;;-11.66;92.10;100677.69;6188873;23;20452;-51
2024/01/31 09:30:02;;;;;;;26.88;12.02;;;;;;;-11.62;92.33;100664.56;6203924;23;20070;-51
2024/01/31 09:32:32;;;;;;;31.45;12.43;;;;;;;-11.62;92.11;100665.44;6188951;23;20024;-50
2024/01/31 09:35:03;;;;;;;25.58;9.93;;;;;;;-11.59;92.10;100664.81;6204524;23;20028;-51
2024/01/31 09:37:34;;;;;;;25.25;11.60;;;;;;;-11.98;92.11;100592.91;6189076;23;20088;-51
2024/01/31 09:40:05;;;;;;;20.52;10.57;;;;;;;-11.56;92.20;100660.00;6203334;23;20016;-51
2024/01/31 09:42:41;;;;;;;21.13;10.73;;;;;;;-11.56;92.44;100655.84;6188241;23;20024;-52
2024/01/31 09:45:13;;;;;;;21.02;10.63;;;;;;;-11.95;92.27;100603.25;6203714;23;20020;-51
2024/01/31 09:47:47;;;;;;;24.63;10.77;;;;;;;-11.63;92.56;100622.47;6188269;23;20103;-49
2024/01/31 09:50:18;;;;;;;21.00;9.98;;;;;;;-11.54;92.56;100639.19;6188508;23;20317;-50
2024/01/31 09:52:53;;;;;;;19.63;9.50;;;;;;;-11.54;92.87;100626.56;6204381;23;20082;-51
2024/01/31 09:55:26;;;;;;;22.52;11.20;;;;;;;-11.56;92.71;100630.63;6188698;23;20569;-49
2024/01/31 09:58:00;;;;;;;25.95;12.43;;;;;;;-11.64;92.75;100615.69;6202659;23;20020;-51
2024/01/31 10:00:31;;;;;;;26.95;11.82;;;;;;;-11.55;92.92;100611.34;6188616;23;20094;-52
2024/01/31 10:03:01;;;;;;;20.23;10.40;;;;;;;-11.59;93.16;100605.19;6203744;23;20077;-52
2024/01/31 10:05:32;;;;;;;27.50;10.85;;;;;;;-11.58;93.33;100606.03;6188635;23;20036;-53
2024/01/31 10:08:03;;;;;;;27.30;10.77;;;;;;;-11.61;93.49;100600.78;6203943;23;20097;-52
2024/01/31 10:10:33;;;;;;;25.27;10.52;;;;;;;-11.65;93.67;100588.72;6188553;23;20033;-51
2024/01/31 10:13:07;;;;;;;23.70;10.05;;;;;;;-11.64;93.89;100585.44;6203519;23;20039;-53
2024/01/31 10:15:38;;;;;;;22.63;10.20;;;;;;;-11.66;93.87;100571.81;6188432;23;20024;-52
2024/01/31 10:18:08;;;;;;;19.48;9.35;;;;;;;-11.70;94.23;100574.84;6202960;23;20024;-52
2024/01/31 10:20:39;;;;;;;20.70;9.55;;;;;;;-11.75;94.43;100575.41;6187163;23;20084;-54
2024/01/31 10:23:09;;;;;;;20.45;11.48;;;;;;;-11.73;94.74;100568.84;6202936;23;20328;-51
2024/01/31 10:25:39;;;;;;;20.63;10.05;;;;;;;-11.69;94.82;100566.53;6187263;23;20073;-52
2024/01/31 10:28:18;;;;;;;21.60;11.05;;;;;;;-11.69;94.82;100556.47;6202423;23;20052;-51
2024/01/31 10:30:49;;;;;;;23.85;11.98;;;;;;;-11.98;94.60;100509.75;6187677;23;20051;-53
2024/01/31 10:33:22;;;;;;;24.90;11.00;;;;;;;-11.66;94.80;100562.59;6188274;23;20042;-53
2024/01/31 10:35:54;;;;;;;22.95;10.43;;;;;;;-11.66;94.57;100559.22;6203760;23;20024;-52
2024/01/31 10:38:27;;;;;;;21.33;10.43;;;;;;;-11.66;94.68;100556.69;6189006;23;20027;-50
2024/01/31 10:41:00;;;;;;;21.35;10.90;;;;;;;-11.64;94.61;100570.28;6203853;23;20449;-51
2024/01/31 10:43:34;;;;;;;30.75;13.35;;;;;;;-11.58;94.84;100558.16;6188053;23;20061;-53
2024/01/31 10:46:04;;;;;;;22.38;10.25;;;;;;;-11.59;94.61;100574.03;6202830;23;20086;-52
2024/01/31 10:48:35;;;;;;;25.25;12.18;;;;;;;-11.56;94.70;100574.28;6187862;23;20050;-52
2024/01/31 10:51:08;;;;;;;24.17;11.23;;;;;;;-11.49;94.66;100576.50;6202678;23;20034;-54
2024/01/31 10:53:40;;;;;;;21.25;10.50;;;;;;;-11.48;94.44;100568.19;6186281;23;20031;-52
2024/01/31 10:56:12;;;;;;;22.35;11.02;;;;;;;-11.53;94.27;100564.41;6201780;23;20028;-51
2024/01/31 10:58:44;;;;;;;25.27;9.57;;;;;;;-11.57;94.08;100565.84;6186249;23;20054;-52
2024/01/31 11:01:16;;;;;;;27.00;12.60;;;;;;;-11.63;94.32;100551.88;6189352;23;20020;-54
2024/01/31 11:03:47;;;;;;;31.42;12.98;;;;;;;-11.68;94.41;100558.22;6203193;23;20291;-54
2024/01/31 11:06:18;;;;;;;46.90;17.50;;;;;;;-11.61;94.54;100556.28;6187911;23;20074;-51
2024/01/31 11:08:49;;;;;;;93.28;27.23;;;;;;;-11.59;94.72;100558.91;6202936;23;20032;-54
2024/01/31 11:11:20;;;;;;;74.50;23.30;;;;;;;-11.56;94.87;100561.66;6187726;23;20024;-53
2024/01/31 11:13:56;;;;;;;45.60;15.52;;;;;;;-11.54;94.48;100565.19;6203683;23;20026;-53
2024/01/31 11:16:26;;;;;;;33.67;13.00;;;;;;;-11.58;94.59;100555.63;6187698;23;20044;-56
2024/01/31 11:18:57;;;;;;;27.50;12.38;;;;;;;-11.60;94.85;100554.66;6203130;23;20090;-53
2024/01/31 11:21:28;;;;;;;23.48;11.18;;;;;;;-11.58;94.77;100563.19;6187760;23;20107;-54
2024/01/31 11:23:58;;;;;;;24.25;11.75;;;;;;;-11.60;94.76;100568.13;6202906;23;20020;-54